GB-0033 weather

Public forecast

Using degrees Celsius for public forecast. Weather courtesy of forecast.io.

Closest aviation weather report (METAR) to Heywood Farm Airstrip

Closest report is Exeter International Airport, 17.4 nm (32.3 km) SSW. Retrieved 2020/08/12 01:20 UTC (0 seconds ago):

EGTE 120120Z VRB02KT CAVOK 18/17 Q1013

Closest aviation forecast (TAF) to Heywood Farm Airstrip

Forecast is more than 12 hours old.

Closest forecast is Exeter International Airport, 17.4 nm (32.3 km) SSW. Retrieved 2012/04/19 12:15 UTC (8 years ago):

TAF TAF EGTE 191401Z 1912/1924 31016KT 9999 SCT030 SCT035 PROB40 TEMPO 1915/1918 7000 SHRA BKN014